Weather History for Superior, WI

Change the Weather History Date:

Thursday, May 29, 2014

  Actual Average Record
Temperature  
Mean Temperature 52 °F -  
Max Temperature 70 °F 61 °F 92 °F (1986)
Min Temperature 33 °F 42 °F 27 °F (1961)
Degree Days  
Heating Degree Days 14    
Growing Degree Days 2 (Base 50)    
Moisture  
Dew Point 43 °F    
Average Humidity 73    
Maximum Humidity 100    
Minimum Humidity 46    
Precipitation  
Precipitation 0.00 in - - ()
Sea Level Pressure  
Sea Level Pressure 30.13 in    
Wind  
Wind Speed 3 mph (NE)    
Max Wind Speed 8 mph    
Max Gust Speed -    
Visibility 10 miles    
Events      
Averages and records for this station are not official NWS values.
T = Trace of Precipitation, MM = Missing Value Source: NWS Daily Summary

Daily Weather History Graph

Daily Weather History Graph

Search for Another Location

Airport:

Trip Planner

Search our weather history database for the weather conditions in past years. The results will help you decide how hot, cold, wet, or windy it might be!

Date:

Astronomy

May. 29, 2014 Rise Set
Actual Time 5:20 AM CDT 8:51 PM CDT
Civil Twilight 4:42 AM CDT 9:29 PM CDT
Nautical Twilight 3:52 AM CDT 10:19 PM CDT
Astronomical Twilight 2:46 AM CDT 11:26 PM CDT
Moon 6:17 AM CDT (5/29) 9:38 PM CDT (5/29)
Length of Visible Light 16h 46m
Length of Day
15h 31m
New Moon, 1% of the Moon is Illuminated
May 29
New Moon
Jun 5
First Quarter
Jun 12
Full
Jun 19
Last Quarter
Jun 27
New

Hourly Weather History & Observations

Time (CDT) Temp. Windchill Dew Point Humidity Pressure Visibility Wind Dir Wind Speed Gust Speed Precip Events Conditions
12:15 AM 39.6 °F 37.4 °F 38.3 °F 95% 30.15 in 10.0 mi NNE 3.5 mph - N/A   Clear
12:35 AM 39.7 °F - 38.5 °F 95% 30.15 in 10.0 mi Calm Calm - N/A   Clear
12:55 AM 39.6 °F - 38.5 °F 96% 30.15 in 10.0 mi Calm Calm - N/A   Clear
1:15 AM 38.1 °F - 37.4 °F 97% 30.14 in 10.0 mi Calm Calm - N/A   Clear
1:35 AM 38.5 °F - 37.6 °F 97% 30.13 in 10.0 mi Calm Calm - N/A   Clear
1:55 AM 36.1 °F - 35.4 °F 97% 30.13 in 10.0 mi Calm Calm - N/A   Clear
2:15 AM 35.2 °F - 34.5 °F 97% 30.13 in 10.0 mi Calm Calm - N/A   Clear
2:35 AM 35.6 °F - 35.2 °F 99% 30.14 in 10.0 mi Calm Calm - N/A   Clear
2:55 AM 34.7 °F - 34.5 °F 99% 30.15 in 1.8 mi Calm Calm - N/A   Mist
3:35 AM 34.9 °F - 34.9 °F 100% 30.15 in 3.0 mi Calm Calm - N/A   Clear
4:15 AM 33.6 °F - 33.3 °F 99% 30.16 in 10.0 mi Calm Calm - N/A   Clear
4:35 AM 34.0 °F 29.8 °F 34.0 °F 100% 30.15 in 0.8 mi South 4.6 mph - N/A   Mist
4:55 AM 35.1 °F - 35.1 °F 100% 30.16 in 10.0 mi Calm Calm - N/A   Clear
5:15 AM 34.7 °F - 34.5 °F 99% 30.18 in 10.0 mi Calm Calm - N/A   Clear
5:35 AM 33.8 °F - 33.4 °F 99% 30.16 in 3.0 mi Calm Calm - N/A   Clear
5:55 AM 34.7 °F - 34.5 °F 99% 30.16 in 10.0 mi Calm Calm - N/A   Clear
6:15 AM 35.8 °F - 35.6 °F 99% 30.17 in 10.0 mi Calm Calm - N/A   Clear
6:35 AM 39.2 °F - 39.0 °F 99% 30.17 in 10.0 mi Calm Calm - N/A   Clear
6:55 AM 40.6 °F - 39.7 °F 97% 30.18 in 10.0 mi Calm Calm - N/A   Clear
7:15 AM 43.0 °F - 41.4 °F 94% 30.17 in 10.0 mi Calm Calm - N/A   Clear
7:35 AM 46.2 °F - 43.3 °F 90% 30.17 in 10.0 mi Calm Calm - N/A   Clear
7:55 AM 49.5 °F - 44.4 °F 83% 30.17 in 10.0 mi Calm Calm - N/A   Clear
8:15 AM 52.0 °F - 44.6 °F 76% 30.17 in 10.0 mi Calm Calm - N/A   Clear
8:35 AM 53.8 °F - 44.8 °F 72% 30.17 in 10.0 mi NE 5.8 mph - N/A   Clear
8:55 AM 54.7 °F - 44.4 °F 68% 30.16 in 10.0 mi East 3.5 mph - N/A   Clear
9:15 AM 56.7 °F - 45.0 °F 65% 30.16 in 10.0 mi NNE 5.8 mph - N/A   Clear
9:35 AM 58.6 °F - 44.8 °F 60% 30.16 in 10.0 mi East 3.5 mph - N/A   Clear
9:55 AM 59.0 °F - 45.5 °F 61% 30.16 in 10.0 mi ENE 4.6 mph - N/A   Clear
10:15 AM 59.2 °F - 45.1 °F 60% 30.16 in 10.0 mi ENE 4.6 mph - N/A   Clear
10:35 AM 59.4 °F - 45.1 °F 59% 30.16 in 10.0 mi Calm Calm - N/A   Clear
10:55 AM 62.1 °F - 46.0 °F 56% 30.16 in 7.0 mi NNE 3.5 mph - N/A   Clear
11:15 AM 63.0 °F - 46.0 °F 54% 30.16 in 10.0 mi NNE 4.6 mph - N/A   Clear
11:35 AM 64.6 °F - 46.9 °F 53% 30.15 in 10.0 mi ENE 3.5 mph - N/A   Clear
11:55 AM 67.3 °F - 48.0 °F 50% 30.14 in 10.0 mi NE 5.8 mph - N/A   Clear
12:15 PM 64.9 °F - 46.9 °F 52% 30.14 in 10.0 mi NNE 4.6 mph - N/A   Clear
12:35 PM 66.9 °F - 47.7 °F 50% 30.15 in 10.0 mi NNE 6.9 mph - N/A   Clear
12:55 PM 65.7 °F - 47.3 °F 51% 30.15 in 10.0 mi ENE 8.1 mph - N/A   Clear
1:15 PM 65.7 °F - 47.1 °F 51% 30.14 in 10.0 mi ENE 5.8 mph - N/A   Clear
1:35 PM 66.7 °F - 48.0 °F 51% 30.13 in 10.0 mi ENE 5.8 mph - N/A   Clear
1:55 PM 68.4 °F - 48.0 °F 48% 30.12 in 10.0 mi NE 5.8 mph - N/A   Clear
2:15 PM 69.1 °F - 49.1 °F 49% 30.12 in 10.0 mi ENE 6.9 mph - N/A   Clear
2:35 PM 69.3 °F - 48.4 °F 47% 30.12 in 10.0 mi NE 5.8 mph - N/A   Clear
2:55 PM 70.2 °F - 48.6 °F 46% 30.12 in 10.0 mi ENE 5.8 mph - N/A   Clear
3:15 PM 69.3 °F - 48.7 °F 48% 30.11 in 10.0 mi NE 6.9 mph - N/A   Clear
3:35 PM 70.2 °F - 49.3 °F 47% 30.10 in 10.0 mi ENE 5.8 mph - N/A   Clear
3:55 PM 70.0 °F - 49.5 °F 48% 30.09 in 10.0 mi NE 8.1 mph - N/A   Clear
4:15 PM 66.6 °F - 48.2 °F 52% 30.10 in 10.0 mi ENE 8.1 mph - N/A   Clear
4:35 PM 64.0 °F - 46.9 °F 54% 30.09 in 10.0 mi ENE 5.8 mph - N/A   Clear
4:55 PM 63.7 °F - 46.8 °F 54% 30.09 in 10.0 mi NE 8.1 mph - N/A   Clear
5:15 PM 63.3 °F - 46.9 °F 55% 30.09 in 10.0 mi NE 5.8 mph - N/A   Clear
5:35 PM 64.2 °F - 47.5 °F 55% 30.09 in 10.0 mi NNE 5.8 mph - N/A   Clear
5:55 PM 61.9 °F - 46.4 °F 57% 30.09 in 10.0 mi NE 4.6 mph - N/A   Clear
6:15 PM 62.2 °F - 46.4 °F 56% 30.08 in 10.0 mi NE 5.8 mph - N/A   Clear
6:35 PM 63.1 °F - 46.8 °F 55% 30.07 in 10.0 mi NE 4.6 mph - N/A   Clear
6:55 PM 63.0 °F - 46.8 °F 55% 30.07 in 10.0 mi NE 4.6 mph - N/A   Clear
7:15 PM 62.4 °F - 46.6 °F 56% 30.07 in 10.0 mi NNE 5.8 mph - N/A   Clear
7:35 PM 61.3 °F - 46.6 °F 58% 30.08 in 10.0 mi NE 3.5 mph - N/A   Clear
7:55 PM 59.0 °F - 46.4 °F 63% 30.08 in 10.0 mi ENE 3.5 mph - N/A   Clear
8:15 PM 57.4 °F - 45.9 °F 65% 30.08 in 10.0 mi NE 3.5 mph - N/A   Clear
8:35 PM 55.6 °F - 45.7 °F 69% 30.09 in 10.0 mi NE 3.5 mph - N/A   Clear
8:55 PM 53.4 °F - 45.5 °F 75% 30.10 in 10.0 mi NE 4.6 mph - N/A   Clear
9:15 PM 52.0 °F - 45.0 °F 77% 30.10 in 10.0 mi NE 4.6 mph - N/A   Clear
9:35 PM 49.5 °F - 43.9 °F 81% 30.10 in 10.0 mi NNE 4.6 mph - N/A   Clear
9:55 PM 47.7 °F - 43.0 °F 84% 30.11 in 10.0 mi Calm Calm - N/A   Clear
10:15 PM 47.3 °F - 42.8 °F 84% 30.11 in 10.0 mi NE 4.6 mph - N/A   Clear
10:35 PM 46.6 °F - 41.9 °F 84% 30.11 in 10.0 mi NNE 4.6 mph - N/A   Clear
10:55 PM 45.7 °F 41.5 °F 41.2 °F 84% 30.12 in 10.0 mi ENE 8.1 mph - N/A   Clear
11:15 PM 45.5 °F 41.8 °F 41.0 °F 84% 30.12 in 10.0 mi ENE 6.9 mph - N/A   Clear
11:35 PM 44.8 °F 41.0 °F 41.0 °F 87% 30.13 in 10.0 mi ENE 6.9 mph - N/A   Clear
11:55 PM 45.5 °F 44.2 °F 41.4 °F 85% 30.13 in 10.0 mi ENE 3.5 mph - N/A   Clear